Nanticoke — WDC4353 — position and weather

sailwx.info

Track history (hours):
 
Tides and Currents Weather Stations Pressure Air Temp Water Temp Dewpoint Dewpoint Depression Visibility Wind Speed Wind Dir Waves Ship Positions

Nanticoke

Owner: Vane Line Bunkering, Baltimore, MD. More information available from US FCC via Universal Licensing System and Coast Guard Vessel Documentation Center.

Last reported at 2014-Oct-23 00:33 UTC. Time now 2014-Oct-23 00:37 UTC.
Position N 40°40' W 074°00'.

Length 34 m; draft 4.7 m.

Type: Towing. MMSI: 367023480.

Date/timePositionNaut miles runAvg speedWind from/ knotsBaromVisibWave heightAir tempDewpointWater temp
2014-Oct-23 00:33N 40°40' W 074°00'0 0.0
2014-Oct-22 23:34N 40°40' W 074°00'0 0.0
2014-Oct-22 22:33N 40°40' W 074°00'0 0.0
2014-Oct-22 21:34N 40°40' W 074°00'0 0.0
2014-Oct-22 20:33N 40°40' W 074°00'0 0.2
2014-Oct-22 19:33N 40°40' W 074°00'4 3.8
2014-Oct-22 18:33N 40°39' W 074°05'0 0.1
2014-Oct-22 17:33N 40°39' W 074°05'0 0.0
2014-Oct-22 16:33N 40°39' W 074°05'0 0.0
2014-Oct-22 15:33N 40°39' W 074°05'0 0.0
2014-Oct-22 14:33N 40°39' W 074°05'0 0.0
2014-Oct-22 13:33N 40°39' W 074°05'0 0.0
2014-Oct-22 12:33N 40°39' W 074°05'0 0.0
2014-Oct-22 11:33N 40°39' W 074°05'0 0.0
2014-Oct-22 10:34N 40°39' W 074°05'0 0.0
2014-Oct-22 09:33N 40°39' W 074°05'0 0.0
2014-Oct-22 08:33N 40°39' W 074°05'0 0.0
2014-Oct-22 07:34N 40°39' W 074°05'0 0.0
2014-Oct-22 06:33N 40°39' W 074°05'4 3.9
2014-Oct-22 05:33N 40°40' W 074°00'0 0.0
2014-Oct-22 04:33N 40°40' W 074°00'0 0.0
2014-Oct-22 03:34N 40°40' W 074°00'0 0.0
2014-Oct-22 02:33N 40°40' W 074°00'0 0.1
2014-Oct-22 01:34N 40°40' W 074°00'0 0.0
2014-Oct-22 00:33N 40°40' W 074°00'0 0.0
2014-Oct-21 23:33N 40°40' W 074°00'0 0.0
2014-Oct-21 22:33N 40°40' W 074°00'0 0.0
2014-Oct-21 21:34N 40°40' W 074°00'1 1.4
2014-Oct-21 20:34N 40°40' W 074°02'1 1.4
2014-Oct-21 19:33N 40°40' W 074°00'0 0.0
2014-Oct-21 18:33N 40°40' W 074°00'0 0.0
2014-Oct-21 17:33N 40°40' W 074°00'0 0.0
2014-Oct-21 16:34N 40°40' W 074°00'4 3.8
2014-Oct-21 15:33N 40°39' W 074°05'2 1.7
2014-Oct-21 14:34N 40°39' W 074°03'0 0.2
2014-Oct-21 13:33N 40°39' W 074°03'0 0.1
2014-Oct-21 12:33N 40°39' W 074°03'0 0.0
2014-Oct-21 11:33N 40°40' W 074°03'0 0.0
2014-Oct-21 10:33N 40°40' W 074°03'0 0.0
2014-Oct-21 09:34N 40°40' W 074°03'4 4.0
2014-Oct-21 08:33N 40°39' W 074°08'3 3.5
2014-Oct-21 07:33N 40°38' W 074°12'2 1.8
2014-Oct-21 06:33N 40°36' W 074°12'0 0.0
2014-Oct-21 05:34N 40°36' W 074°12'0 0.0
2014-Oct-21 04:30N 40°36' W 074°12'0 0.0
2014-Oct-21 03:33N 40°36' W 074°12'0 0.0
2014-Oct-21 02:33N 40°36' W 074°12'0 0.0
2014-Oct-21 01:33N 40°36' W 074°12'0 0.0
2014-Oct-21 00:33N 40°36' W 074°12'0 0.0
2014-Oct-20 23:33N 40°36' W 074°12'0 0.0
2014-Oct-20 22:33N 40°36' W 074°12'0 0.0
2014-Oct-20 21:33N 40°36' W 074°12'0 0.5
2014-Oct-20 20:33N 40°36' W 074°12'2 2.0
2014-Oct-20 19:33N 40°38' W 074°12'4 3.7
2014-Oct-20 18:33N 40°39' W 074°07'3 3.4
2014-Oct-20 17:33N 40°39' W 074°03'0 0.1
2014-Oct-20 16:34N 40°39' W 074°03'0 0.1
2014-Oct-20 15:34N 40°39' W 074°03'0 0.0
2014-Oct-20 14:34N 40°39' W 074°03'0 0.1
2014-Oct-20 13:34N 40°39' W 074°02'0 0.0
2014-Oct-20 12:34N 40°39' W 074°02'0 0.0
2014-Oct-20 11:33N 40°39' W 074°02'0 0.0
2014-Oct-20 10:34N 40°39' W 074°02'0 0.0
2014-Oct-20 09:34N 40°39' W 074°02'0 0.0
2014-Oct-20 08:34N 40°39' W 074°02'0 0.0
2014-Oct-20 07:33N 40°39' W 074°02'0 0.1
2014-Oct-20 06:34N 40°39' W 074°03'0 0.0
2014-Oct-20 05:34N 40°39' W 074°03'0 0.0
2014-Oct-20 04:34N 40°39' W 074°03'0 0.0
2014-Oct-20 03:34N 40°39' W 074°03'0 0.0
2014-Oct-20 02:33N 40°39' W 074°03'4 4.3
2014-Oct-20 01:34N 40°35' W 074°02'5 4.9
2014-Oct-20 00:33N 40°31' W 073°59'7 6.4
2014-Oct-19 23:24N 40°24' W 073°55'9 9.3
2014-Oct-19 22:23N 40°14' W 073°55'20 9.5
2014-Oct-19 20:15N 39°54' W 073°57'7 9.4
2014-Oct-19 19:33N 39°48' W 073°58'9 9.1
2014-Oct-19 18:33N 39°39' W 074°02'9 9.2
2014-Oct-19 17:33N 39°31' W 074°08'60 5.7
2014-Oct-19 07:07N 39°19' W 075°24'611.2
2014-Oct-19 06:33N 39°23' W 075°29'1010.1
2014-Oct-19 05:33N 39°33' W 075°33'10 9.8
2014-Oct-19 04:33N 39°43' W 075°31'1010.3
2014-Oct-19 03:33N 39°50' W 075°21'  
2014-Oct-15 19:22N 39°54' W 075°12'5 5.6
2014-Oct-15 18:33N 39°51' W 075°17'12 8.6
2014-Oct-15 17:07N 39°44' W 075°30'52 7.8
2014-Oct-15 10:25N 39°08' W 076°20'7 7.7
2014-Oct-15 09:34N 39°02' W 076°21'9 9.1
2014-Oct-15 08:34N 38°53' W 076°25'47 9.2
2014-Oct-15 03:24N 38°06' W 076°15'8 9.7
2014-Oct-15 02:33N 37°58' W 076°13'48 9.7
2014-Oct-14 21:33N 37°10' W 076°10'10 9.4
2014-Oct-14 20:27N 36°60' W 076°11'8 7.8
2014-Oct-14 19:25N 36°57' W 076°20'10 2.1
2014-Oct-14 14:33N 36°47' W 076°18'0 0.0
2014-Oct-14 13:29N 36°47' W 076°18'0 0.0
2014-Oct-14 12:33N 36°47' W 076°18'0 0.0
2014-Oct-14 11:30N 36°47' W 076°18'0 0.0
2014-Oct-14 10:23N 36°47' W 076°18'0 0.0
2014-Oct-14 09:29N 36°47' W 076°18'0 0.0
2014-Oct-14 06:27N 36°47' W 076°18'0 0.0
2014-Oct-14 05:31N 36°47' W 076°18'0 0.0
2014-Oct-14 04:33N 36°47' W 076°18'0 0.0
2014-Oct-14 01:33N 36°47' W 076°18'0 0.0
2014-Oct-14 00:05N 36°47' W 076°18'0 0.0
2014-Oct-13 23:29N 36°47' W 076°18'0 0.1
2014-Oct-13 22:24N 36°47' W 076°18'4 4.8
2014-Oct-13 21:28N 36°51' W 076°18'6 6.9
2014-Oct-13 20:32N 36°57' W 076°20'7 6.5
2014-Oct-13 19:31N 37°00' W 076°13'5 5.1
2014-Oct-13 18:32N 37°04' W 076°09'7 6.9
2014-Oct-13 17:32N 37°11' W 076°11'7 7.2
2014-Oct-13 16:31N 37°18' W 076°11'90 8.2
2014-Oct-13 05:31N 38°48' W 076°27'8 8.5
2014-Oct-13 04:33N 38°55' W 076°25'8 8.0
2014-Oct-13 03:33N 39°03' W 076°23'7 7.4
2014-Oct-13 02:33N 39°10' W 076°26'7 7.1
2014-Oct-13 01:33N 39°13' W 076°35'  
Track history (hours):
 
Tides and Currents Weather Stations Pressure Air Temp Water Temp Dewpoint Dewpoint Depression Visibility Wind Speed Wind Dir Waves Ship Positions

Nanticoke

Owner: Vane Line Bunkering, Baltimore, MD. More information available from US FCC via Universal Licensing System and Coast Guard Vessel Documentation Center.

Last reported at 2014-Oct-23 00:33 UTC. Time now 2014-Oct-23 00:37 UTC.
Position N 40°40' W 074°00'.

Length 34 m; draft 4.7 m.

Type: Towing. MMSI: 367023480.

Date/timePositionNaut miles runAvg speedWind from/ knotsBaromVisibWave heightAir tempDewpointWater temp
2014-Oct-23 00:33N 40°40' W 074°00'0 0.0
2014-Oct-22 23:34N 40°40' W 074°00'0 0.0
2014-Oct-22 22:33N 40°40' W 074°00'0 0.0
2014-Oct-22 21:34N 40°40' W 074°00'0 0.0
2014-Oct-22 20:33N 40°40' W 074°00'0 0.2
2014-Oct-22 19:33N 40°40' W 074°00'4 3.8
2014-Oct-22 18:33N 40°39' W 074°05'0 0.1
2014-Oct-22 17:33N 40°39' W 074°05'0 0.0
2014-Oct-22 16:33N 40°39' W 074°05'0 0.0
2014-Oct-22 15:33N 40°39' W 074°05'0 0.0
2014-Oct-22 14:33N 40°39' W 074°05'0 0.0
2014-Oct-22 13:33N 40°39' W 074°05'0 0.0
2014-Oct-22 12:33N 40°39' W 074°05'0 0.0
2014-Oct-22 11:33N 40°39' W 074°05'0 0.0
2014-Oct-22 10:34N 40°39' W 074°05'0 0.0
2014-Oct-22 09:33N 40°39' W 074°05'0 0.0
2014-Oct-22 08:33N 40°39' W 074°05'0 0.0
2014-Oct-22 07:34N 40°39' W 074°05'0 0.0
2014-Oct-22 06:33N 40°39' W 074°05'4 3.9
2014-Oct-22 05:33N 40°40' W 074°00'0 0.0
2014-Oct-22 04:33N 40°40' W 074°00'0 0.0
2014-Oct-22 03:34N 40°40' W 074°00'0 0.0
2014-Oct-22 02:33N 40°40' W 074°00'0 0.1
2014-Oct-22 01:34N 40°40' W 074°00'0 0.0
2014-Oct-22 00:33N 40°40' W 074°00'0 0.0
2014-Oct-21 23:33N 40°40' W 074°00'0 0.0
2014-Oct-21 22:33N 40°40' W 074°00'0 0.0
2014-Oct-21 21:34N 40°40' W 074°00'1 1.4
2014-Oct-21 20:34N 40°40' W 074°02'1 1.4
2014-Oct-21 19:33N 40°40' W 074°00'0 0.0
2014-Oct-21 18:33N 40°40' W 074°00'0 0.0
2014-Oct-21 17:33N 40°40' W 074°00'0 0.0
2014-Oct-21 16:34N 40°40' W 074°00'4 3.8
2014-Oct-21 15:33N 40°39' W 074°05'2 1.7
2014-Oct-21 14:34N 40°39' W 074°03'0 0.2
2014-Oct-21 13:33N 40°39' W 074°03'0 0.1
2014-Oct-21 12:33N 40°39' W 074°03'0 0.0
2014-Oct-21 11:33N 40°40' W 074°03'0 0.0
2014-Oct-21 10:33N 40°40' W 074°03'0 0.0
2014-Oct-21 09:34N 40°40' W 074°03'4 4.0
2014-Oct-21 08:33N 40°39' W 074°08'3 3.5
2014-Oct-21 07:33N 40°38' W 074°12'2 1.8
2014-Oct-21 06:33N 40°36' W 074°12'0 0.0
2014-Oct-21 05:34N 40°36' W 074°12'0 0.0
2014-Oct-21 04:30N 40°36' W 074°12'0 0.0
2014-Oct-21 03:33N 40°36' W 074°12'0 0.0
2014-Oct-21 02:33N 40°36' W 074°12'0 0.0
2014-Oct-21 01:33N 40°36' W 074°12'0 0.0
2014-Oct-21 00:33N 40°36' W 074°12'0 0.0
2014-Oct-20 23:33N 40°36' W 074°12'0 0.0
2014-Oct-20 22:33N 40°36' W 074°12'0 0.0
2014-Oct-20 21:33N 40°36' W 074°12'0 0.5
2014-Oct-20 20:33N 40°36' W 074°12'2 2.0
2014-Oct-20 19:33N 40°38' W 074°12'4 3.7
2014-Oct-20 18:33N 40°39' W 074°07'3 3.4
2014-Oct-20 17:33N 40°39' W 074°03'0 0.1
2014-Oct-20 16:34N 40°39' W 074°03'0 0.1
2014-Oct-20 15:34N 40°39' W 074°03'0 0.0
2014-Oct-20 14:34N 40°39' W 074°03'0 0.1
2014-Oct-20 13:34N 40°39' W 074°02'0 0.0
2014-Oct-20 12:34N 40°39' W 074°02'0 0.0
2014-Oct-20 11:33N 40°39' W 074°02'0 0.0
2014-Oct-20 10:34N 40°39' W 074°02'0 0.0
2014-Oct-20 09:34N 40°39' W 074°02'0 0.0
2014-Oct-20 08:34N 40°39' W 074°02'0 0.0
2014-Oct-20 07:33N 40°39' W 074°02'0 0.1
2014-Oct-20 06:34N 40°39' W 074°03'0 0.0
2014-Oct-20 05:34N 40°39' W 074°03'0 0.0
2014-Oct-20 04:34N 40°39' W 074°03'0 0.0
2014-Oct-20 03:34N 40°39' W 074°03'0 0.0
2014-Oct-20 02:33N 40°39' W 074°03'4 4.3
2014-Oct-20 01:34N 40°35' W 074°02'5 4.9
2014-Oct-20 00:33N 40°31' W 073°59'7 6.4
2014-Oct-19 23:24N 40°24' W 073°55'9 9.3
2014-Oct-19 22:23N 40°14' W 073°55'20 9.5
2014-Oct-19 20:15N 39°54' W 073°57'7 9.4
2014-Oct-19 19:33N 39°48' W 073°58'9 9.1
2014-Oct-19 18:33N 39°39' W 074°02'9 9.2
2014-Oct-19 17:33N 39°31' W 074°08'60 5.7
2014-Oct-19 07:07N 39°19' W 075°24'611.2
2014-Oct-19 06:33N 39°23' W 075°29'1010.1
2014-Oct-19 05:33N 39°33' W 075°33'10 9.8
2014-Oct-19 04:33N 39°43' W 075°31'1010.3
2014-Oct-19 03:33N 39°50' W 075°21'  
2014-Oct-15 19:22N 39°54' W 075°12'5 5.6
2014-Oct-15 18:33N 39°51' W 075°17'12 8.6
2014-Oct-15 17:07N 39°44' W 075°30'52 7.8
2014-Oct-15 10:25N 39°08' W 076°20'7 7.7
2014-Oct-15 09:34N 39°02' W 076°21'9 9.1
2014-Oct-15 08:34N 38°53' W 076°25'47 9.2
2014-Oct-15 03:24N 38°06' W 076°15'8 9.7
2014-Oct-15 02:33N 37°58' W 076°13'48 9.7
2014-Oct-14 21:33N 37°10' W 076°10'10 9.4
2014-Oct-14 20:27N 36°60' W 076°11'8 7.8
2014-Oct-14 19:25N 36°57' W 076°20'10 2.1
2014-Oct-14 14:33N 36°47' W 076°18'0 0.0
2014-Oct-14 13:29N 36°47' W 076°18'0 0.0
2014-Oct-14 12:33N 36°47' W 076°18'0 0.0
2014-Oct-14 11:30N 36°47' W 076°18'0 0.0
2014-Oct-14 10:23N 36°47' W 076°18'0 0.0
2014-Oct-14 09:29N 36°47' W 076°18'0 0.0
2014-Oct-14 06:27N 36°47' W 076°18'0 0.0
2014-Oct-14 05:31N 36°47' W 076°18'0 0.0
2014-Oct-14 04:33N 36°47' W 076°18'0 0.0
2014-Oct-14 01:33N 36°47' W 076°18'0 0.0
2014-Oct-14 00:05N 36°47' W 076°18'0 0.0
2014-Oct-13 23:29N 36°47' W 076°18'0 0.1
2014-Oct-13 22:24N 36°47' W 076°18'4 4.8
2014-Oct-13 21:28N 36°51' W 076°18'6 6.9
2014-Oct-13 20:32N 36°57' W 076°20'7 6.5
2014-Oct-13 19:31N 37°00' W 076°13'5 5.1
2014-Oct-13 18:32N 37°04' W 076°09'7 6.9
2014-Oct-13 17:32N 37°11' W 076°11'7 7.2
2014-Oct-13 16:31N 37°18' W 076°11'90 8.2
2014-Oct-13 05:31N 38°48' W 076°27'8 8.5
2014-Oct-13 04:33N 38°55' W 076°25'8 8.0
2014-Oct-13 03:33N 39°03' W 076°23'7 7.4
2014-Oct-13 02:33N 39°10' W 076°26'7 7.1
2014-Oct-13 01:33N 39°13' W 076°35'  

Dump ship's entire track history